sensor_id;sensor_type;location;lat;lon;timestamp;temperature;humidity
64833;HTU21D;51290;45.060;38.948;2023-06-19T00:01:21;21.73;70.06
64833;HTU21D;51290;45.060;38.948;2023-06-19T00:03:47;21.67;70.13
64833;HTU21D;51290;45.060;38.948;2023-06-19T00:06:13;21.62;70.25
64833;HTU21D;51290;45.060;38.948;2023-06-19T00:08:39;21.59;70.31
64833;HTU21D;51290;45.060;38.948;2023-06-19T00:11:07;21.51;70.48
64833;HTU21D;51290;45.060;38.948;2023-06-19T00:13:33;21.50;70.78
64833;HTU21D;51290;45.060;38.948;2023-06-19T00:16:00;21.47;70.79
64833;HTU21D;51290;45.060;38.948;2023-06-19T00:18:27;21.44;70.85
64833;HTU21D;51290;45.060;38.948;2023-06-19T00:20:53;21.42;70.84
64833;HTU21D;51290;45.060;38.948;2023-06-19T00:23:24;21.36;70.95
64833;HTU21D;51290;45.060;38.948;2023-06-19T00:25:50;21.32;71.21
64833;HTU21D;51290;45.060;38.948;2023-06-19T00:28:16;21.28;71.19
64833;HTU21D;51290;45.060;38.948;2023-06-19T00:30:45;21.24;71.26
64833;HTU21D;51290;45.060;38.948;2023-06-19T00:33:13;21.18;71.38
64833;HTU21D;51290;45.060;38.948;2023-06-19T00:35:39;21.16;71.53
64833;HTU21D;51290;45.060;38.948;2023-06-19T00:38:07;21.14;71.67
64833;HTU21D;51290;45.060;38.948;2023-06-19T00:40:34;21.10;71.65
64833;HTU21D;51290;45.060;38.948;2023-06-19T00:43:00;21.06;71.71
64833;HTU21D;51290;45.060;38.948;2023-06-19T00:45:27;21.02;71.83
64833;HTU21D;51290;45.060;38.948;2023-06-19T00:47:56;20.99;71.93
64833;HTU21D;51290;45.060;38.948;2023-06-19T00:50:27;20.96;72.06
64833;HTU21D;51290;45.060;38.948;2023-06-19T00:52:53;20.93;72.06
64833;HTU21D;51290;45.060;38.948;2023-06-19T00:55:21;20.90;72.24
64833;HTU21D;51290;45.060;38.948;2023-06-19T00:57:48;20.87;72.29
64833;HTU21D;51290;45.060;38.948;2023-06-19T01:00:15;20.86;72.35
64833;HTU21D;51290;45.060;38.948;2023-06-19T01:02:41;20.84;72.41
64833;HTU21D;51290;45.060;38.948;2023-06-19T01:05:07;20.81;72.64
64833;HTU21D;51290;45.060;38.948;2023-06-19T01:07:52;20.80;72.81
64833;HTU21D;51290;45.060;38.948;2023-06-19T01:10:28;20.78;72.67
64833;HTU21D;51290;45.060;38.948;2023-06-19T01:13:00;20.75;72.77
64833;HTU21D;51290;45.060;38.948;2023-06-19T01:15:27;20.73;72.89
64833;HTU21D;51290;45.060;38.948;2023-06-19T01:17:57;20.71;73.23
64833;HTU21D;51290;45.060;38.948;2023-06-19T01:20:24;20.69;73.15
64833;HTU21D;51290;45.060;38.948;2023-06-19T01:22:50;20.68;73.17
64833;HTU21D;51290;45.060;38.948;2023-06-19T01:25:16;20.66;73.24
64833;HTU21D;51290;45.060;38.948;2023-06-19T01:27:42;20.63;73.24
64833;HTU21D;51290;45.060;38.948;2023-06-19T01:30:10;20.62;73.28
64833;HTU21D;51290;45.060;38.948;2023-06-19T01:35:13;20.53;73.46
64833;HTU21D;51290;45.060;38.948;2023-06-19T01:37:40;20.48;73.53
64833;HTU21D;51290;45.060;38.948;2023-06-19T01:40:09;20.42;73.65
64833;HTU21D;51290;45.060;38.948;2023-06-19T01:42:40;20.39;73.78
64833;HTU21D;51290;45.060;38.948;2023-06-19T01:45:07;20.35;73.90
64833;HTU21D;51290;45.060;38.948;2023-06-19T01:47:35;20.31;74.04
64833;HTU21D;51290;45.060;38.948;2023-06-19T01:50:02;20.31;74.17
64833;HTU21D;51290;45.060;38.948;2023-06-19T01:52:29;20.30;74.24
64833;HTU21D;51290;45.060;38.948;2023-06-19T01:54:55;20.29;74.26
64833;HTU21D;51290;45.060;38.948;2023-06-19T01:57:21;20.28;74.33
64833;HTU21D;51290;45.060;38.948;2023-06-19T01:59:47;20.26;74.42
64833;HTU21D;51290;45.060;38.948;2023-06-19T02:02:13;20.25;74.52
64833;HTU21D;51290;45.060;38.948;2023-06-19T02:04:39;20.24;74.63
64833;HTU21D;51290;45.060;38.948;2023-06-19T02:07:05;20.25;74.67
64833;HTU21D;51290;45.060;38.948;2023-06-19T02:09:31;20.26;74.75
64833;HTU21D;51290;45.060;38.948;2023-06-19T02:11:57;20.28;74.83
64833;HTU21D;51290;45.060;38.948;2023-06-19T02:14:24;20.32;74.86
64833;HTU21D;51290;45.060;38.948;2023-06-19T02:16:50;20.35;74.92
64833;HTU21D;51290;45.060;38.948;2023-06-19T02:19:16;20.40;74.93
64833;HTU21D;51290;45.060;38.948;2023-06-19T02:21:42;20.45;74.98
64833;HTU21D;51290;45.060;38.948;2023-06-19T02:24:08;20.54;74.96
64833;HTU21D;51290;45.060;38.948;2023-06-19T02:26:34;20.63;74.89
64833;HTU21D;51290;45.060;38.948;2023-06-19T02:29:00;20.73;74.82
64833;HTU21D;51290;45.060;38.948;2023-06-19T02:31:27;20.84;74.73
64833;HTU21D;51290;45.060;38.948;2023-06-19T02:33:53;20.92;74.63
64833;HTU21D;51290;45.060;38.948;2023-06-19T02:36:19;21.05;74.53
64833;HTU21D;51290;45.060;38.948;2023-06-19T02:38:51;21.18;74.50
64833;HTU21D;51290;45.060;38.948;2023-06-19T02:41:17;21.46;74.53
64833;HTU21D;51290;45.060;38.948;2023-06-19T02:43:45;22.07;74.04
64833;HTU21D;51290;45.060;38.948;2023-06-19T02:46:15;22.84;72.66
64833;HTU21D;51290;45.060;38.948;2023-06-19T02:48:41;23.40;71.38
64833;HTU21D;51290;45.060;38.948;2023-06-19T02:51:07;23.88;70.58
64833;HTU21D;51290;45.060;38.948;2023-06-19T02:53:33;24.56;69.54
64833;HTU21D;51290;45.060;38.948;2023-06-19T02:55:59;25.38;68.18
64833;HTU21D;51290;45.060;38.948;2023-06-19T02:58:25;26.22;66.64
64833;HTU21D;51290;45.060;38.948;2023-06-19T03:00:52;27.05;65.11
64833;HTU21D;51290;45.060;38.948;2023-06-19T03:03:18;27.85;63.73
64833;HTU21D;51290;45.060;38.948;2023-06-19T03:05:44;28.59;62.34
64833;HTU21D;51290;45.060;38.948;2023-06-19T03:08:10;29.23;61.04
64833;HTU21D;51290;45.060;38.948;2023-06-19T03:10:37;29.80;59.92
64833;HTU21D;51290;45.060;38.948;2023-06-19T03:13:03;30.26;58.89
64833;HTU21D;51290;45.060;38.948;2023-06-19T03:15:29;30.68;58.03
64833;HTU21D;51290;45.060;38.948;2023-06-19T03:17:55;31.04;57.16
64833;HTU21D;51290;45.060;38.948;2023-06-19T03:20:23;31.41;56.28
64833;HTU21D;51290;45.060;38.948;2023-06-19T03:22:55;31.71;55.62
64833;HTU21D;51290;45.060;38.948;2023-06-19T03:25:22;31.99;54.95
64833;HTU21D;51290;45.060;38.948;2023-06-19T03:27:49;32.11;54.40
64833;HTU21D;51290;45.060;38.948;2023-06-19T03:30:15;32.29;53.94
64833;HTU21D;51290;45.060;38.948;2023-06-19T03:32:46;32.38;53.53
64833;HTU21D;51290;45.060;38.948;2023-06-19T03:35:23;32.43;53.23
64833;HTU21D;51290;45.060;38.948;2023-06-19T03:37:50;32.46;52.62
64833;HTU21D;51290;45.060;38.948;2023-06-19T03:40:16;32.58;52.34
64833;HTU21D;51290;45.060;38.948;2023-06-19T03:42:45;32.86;51.58
64833;HTU21D;51290;45.060;38.948;2023-06-19T03:45:12;33.01;50.75
64833;HTU21D;51290;45.060;38.948;2023-06-19T03:47:38;33.20;50.35
64833;HTU21D;51290;45.060;38.948;2023-06-19T03:50:06;33.47;49.91
64833;HTU21D;51290;45.060;38.948;2023-06-19T03:52:36;33.78;49.30
64833;HTU21D;51290;45.060;38.948;2023-06-19T03:55:03;34.07;48.77
64833;HTU21D;51290;45.060;38.948;2023-06-19T03:57:29;34.29;48.05
64833;HTU21D;51290;45.060;38.948;2023-06-19T03:59:56;34.45;47.61
64833;HTU21D;51290;45.060;38.948;2023-06-19T04:02:22;34.54;47.28
64833;HTU21D;51290;45.060;38.948;2023-06-19T04:04:48;34.67;46.93
64833;HTU21D;51290;45.060;38.948;2023-06-19T04:07:14;34.89;46.36
64833;HTU21D;51290;45.060;38.948;2023-06-19T04:09:41;35.04;45.95
64833;HTU21D;51290;45.060;38.948;2023-06-19T04:12:07;35.12;45.57
64833;HTU21D;51290;45.060;38.948;2023-06-19T04:14:33;34.94;45.16
64833;HTU21D;51290;45.060;38.948;2023-06-19T04:16:59;34.77;44.91
64833;HTU21D;51290;45.060;38.948;2023-06-19T04:19:27;34.54;45.38
64833;HTU21D;51290;45.060;38.948;2023-06-19T04:21:55;34.57;44.83
64833;HTU21D;51290;45.060;38.948;2023-06-19T04:24:21;34.29;44.82
64833;HTU21D;51290;45.060;38.948;2023-06-19T04:26:47;34.20;45.41
64833;HTU21D;51290;45.060;38.948;2023-06-19T04:29:21;34.41;45.22
64833;HTU21D;51290;45.060;38.948;2023-06-19T04:31:47;34.66;44.84
64833;HTU21D;51290;45.060;38.948;2023-06-19T04:34:17;34.85;44.37
64833;HTU21D;51290;45.060;38.948;2023-06-19T04:36:47;35.07;44.22
64833;HTU21D;51290;45.060;38.948;2023-06-19T04:39:13;35.09;44.03
64833;HTU21D;51290;45.060;38.948;2023-06-19T04:41:44;35.05;43.88
64833;HTU21D;51290;45.060;38.948;2023-06-19T04:44:10;34.89;44.13
64833;HTU21D;51290;45.060;38.948;2023-06-19T04:46:40;34.42;44.48
64833;HTU21D;51290;45.060;38.948;2023-06-19T04:49:06;33.75;45.71
64833;HTU21D;51290;45.060;38.948;2023-06-19T04:51:32;33.04;47.01
64833;HTU21D;51290;45.060;38.948;2023-06-19T04:53:59;32.29;47.88
64833;HTU21D;51290;45.060;38.948;2023-06-19T04:56:25;31.64;49.14
64833;HTU21D;51290;45.060;38.948;2023-06-19T04:58:51;31.12;50.07
64833;HTU21D;51290;45.060;38.948;2023-06-19T05:01:18;30.69;50.82
64833;HTU21D;51290;45.060;38.948;2023-06-19T05:03:48;30.30;51.21
64833;HTU21D;51290;45.060;38.948;2023-06-19T05:06:14;29.98;51.85
64833;HTU21D;51290;45.060;38.948;2023-06-19T05:08:42;29.68;52.16
64833;HTU21D;51290;45.060;38.948;2023-06-19T05:11:11;29.39;52.65
64833;HTU21D;51290;45.060;38.948;2023-06-19T05:13:37;29.20;53.11
64833;HTU21D;51290;45.060;38.948;2023-06-19T05:16:03;28.97;53.10
64833;HTU21D;51290;45.060;38.948;2023-06-19T05:18:29;28.69;53.40
64833;HTU21D;51290;45.060;38.948;2023-06-19T05:20:55;28.41;53.91
64833;HTU21D;51290;45.060;38.948;2023-06-19T05:23:21;28.21;54.37
64833;HTU21D;51290;45.060;38.948;2023-06-19T05:25:47;28.11;54.83
64833;HTU21D;51290;45.060;38.948;2023-06-19T05:28:13;28.05;55.13
64833;HTU21D;51290;45.060;38.948;2023-06-19T05:30:39;28.06;55.31
64833;HTU21D;51290;45.060;38.948;2023-06-19T05:33:05;28.08;55.42
64833;HTU21D;51290;45.060;38.948;2023-06-19T05:35:31;28.11;55.65
64833;HTU21D;51290;45.060;38.948;2023-06-19T05:37:57;28.17;55.71
64833;HTU21D;51290;45.060;38.948;2023-06-19T05:40:23;28.19;55.58
64833;HTU21D;51290;45.060;38.948;2023-06-19T05:42:49;28.14;55.45
64833;HTU21D;51290;45.060;38.948;2023-06-19T05:45:15;28.02;55.54
64833;HTU21D;51290;45.060;38.948;2023-06-19T05:47:43;27.98;55.74
64833;HTU21D;51290;45.060;38.948;2023-06-19T05:50:11;27.99;55.78
64833;HTU21D;51290;45.060;38.948;2023-06-19T05:52:39;27.97;55.85
64833;HTU21D;51290;45.060;38.948;2023-06-19T05:55:09;28.01;55.99
64833;HTU21D;51290;45.060;38.948;2023-06-19T05:57:37;28.09;56.02
64833;HTU21D;51290;45.060;38.948;2023-06-19T06:00:04;28.08;55.90
64833;HTU21D;51290;45.060;38.948;2023-06-19T06:02:38;28.08;56.08
64833;HTU21D;51290;45.060;38.948;2023-06-19T06:05:13;28.08;56.09
64833;HTU21D;51290;45.060;38.948;2023-06-19T06:07:39;28.00;56.12
64833;HTU21D;51290;45.060;38.948;2023-06-19T06:10:06;28.01;56.30
64833;HTU21D;51290;45.060;38.948;2023-06-19T06:12:35;28.02;56.21
64833;HTU21D;51290;45.060;38.948;2023-06-19T06:15:12;27.93;56.21
64833;HTU21D;51290;45.060;38.948;2023-06-19T06:17:44;27.83;56.50
64833;HTU21D;51290;45.060;38.948;2023-06-19T06:20:14;27.86;56.83
64833;HTU21D;51290;45.060;38.948;2023-06-19T06:22:43;27.94;56.77
64833;HTU21D;51290;45.060;38.948;2023-06-19T06:25:32;27.97;56.66
64833;HTU21D;51290;45.060;38.948;2023-06-19T06:27:59;27.98;56.60
64833;HTU21D;51290;45.060;38.948;2023-06-19T06:30:29;27.97;56.55
64833;HTU21D;51290;45.060;38.948;2023-06-19T06:32:57;27.96;56.48
64833;HTU21D;51290;45.060;38.948;2023-06-19T06:35:23;27.95;56.70
64833;HTU21D;51290;45.060;38.948;2023-06-19T06:37:49;28.00;56.76
64833;HTU21D;51290;45.060;38.948;2023-06-19T06:40:15;28.04;56.52
64833;HTU21D;51290;45.060;38.948;2023-06-19T06:42:41;28.08;56.49
64833;HTU21D;51290;45.060;38.948;2023-06-19T06:45:08;28.06;56.29
64833;HTU21D;51290;45.060;38.948;2023-06-19T06:47:34;28.02;56.06
64833;HTU21D;51290;45.060;38.948;2023-06-19T06:50:00;27.95;56.18
64833;HTU21D;51290;45.060;38.948;2023-06-19T06:52:26;27.97;56.16
64833;HTU21D;51290;45.060;38.948;2023-06-19T06:54:53;27.96;56.17
64833;HTU21D;51290;45.060;38.948;2023-06-19T06:57:19;27.95;56.19
64833;HTU21D;51290;45.060;38.948;2023-06-19T06:59:45;27.99;56.27
64833;HTU21D;51290;45.060;38.948;2023-06-19T07:02:11;28.04;56.27
64833;HTU21D;51290;45.060;38.948;2023-06-19T07:04:38;28.10;56.22
64833;HTU21D;51290;45.060;38.948;2023-06-19T07:07:06;28.18;56.20
64833;HTU21D;51290;45.060;38.948;2023-06-19T07:09:34;28.25;56.11
64833;HTU21D;51290;45.060;38.948;2023-06-19T07:12:00;28.26;55.64
64833;HTU21D;51290;45.060;38.948;2023-06-19T07:14:30;28.19;55.71
64833;HTU21D;51290;45.060;38.948;2023-06-19T07:16:56;28.20;55.87
64833;HTU21D;51290;45.060;38.948;2023-06-19T07:19:22;28.28;55.86
64833;HTU21D;51290;45.060;38.948;2023-06-19T07:21:50;28.35;55.69
64833;HTU21D;51290;45.060;38.948;2023-06-19T07:24:17;28.39;55.61
64833;HTU21D;51290;45.060;38.948;2023-06-19T07:26:43;28.40;55.39
64833;HTU21D;51290;45.060;38.948;2023-06-19T07:29:09;28.34;55.29
64833;HTU21D;51290;45.060;38.948;2023-06-19T07:31:35;28.30;55.45
64833;HTU21D;51290;45.060;38.948;2023-06-19T07:34:01;28.33;55.43
64833;HTU21D;51290;45.060;38.948;2023-06-19T07:36:28;28.35;55.40
64833;HTU21D;51290;45.060;38.948;2023-06-19T07:38:55;28.39;55.47
64833;HTU21D;51290;45.060;38.948;2023-06-19T07:41:21;28.45;55.35
64833;HTU21D;51290;45.060;38.948;2023-06-19T07:43:47;28.45;54.87
64833;HTU21D;51290;45.060;38.948;2023-06-19T07:46:13;28.37;54.81
64833;HTU21D;51290;45.060;38.948;2023-06-19T07:48:40;28.29;55.04
64833;HTU21D;51290;45.060;38.948;2023-06-19T07:51:06;28.29;55.13
64833;HTU21D;51290;45.060;38.948;2023-06-19T07:53:32;28.27;54.52
64833;HTU21D;51290;45.060;38.948;2023-06-19T07:55:59;28.24;54.80
64833;HTU21D;51290;45.060;38.948;2023-06-19T07:58:25;28.26;54.93
64833;HTU21D;51290;45.060;38.948;2023-06-19T08:00:51;28.23;54.68
64833;HTU21D;51290;45.060;38.948;2023-06-19T08:03:17;28.21;54.62
64833;HTU21D;51290;45.060;38.948;2023-06-19T08:05:44;28.20;54.71
64833;HTU21D;51290;45.060;38.948;2023-06-19T08:08:14;28.19;54.73
64833;HTU21D;51290;45.060;38.948;2023-06-19T08:10:40;28.18;54.65
64833;HTU21D;51290;45.060;38.948;2023-06-19T08:13:06;28.09;54.26
64833;HTU21D;51290;45.060;38.948;2023-06-19T08:15:33;28.02;54.52
64833;HTU21D;51290;45.060;38.948;2023-06-19T08:17:59;27.97;54.48
64833;HTU21D;51290;45.060;38.948;2023-06-19T08:20:28;27.90;54.39
64833;HTU21D;51290;45.060;38.948;2023-06-19T08:22:54;27.88;54.68
64833;HTU21D;51290;45.060;38.948;2023-06-19T08:25:21;27.93;54.77
64833;HTU21D;51290;45.060;38.948;2023-06-19T08:27:48;28.03;54.90
64833;HTU21D;51290;45.060;38.948;2023-06-19T08:30:14;28.16;54.83
64833;HTU21D;51290;45.060;38.948;2023-06-19T08:32:40;28.29;54.55
64833;HTU21D;51290;45.060;38.948;2023-06-19T08:35:06;28.34;54.11
64833;HTU21D;51290;45.060;38.948;2023-06-19T08:37:33;28.37;54.02
64833;HTU21D;51290;45.060;38.948;2023-06-19T08:39:59;28.43;53.96
64833;HTU21D;51290;45.060;38.948;2023-06-19T08:42:25;28.44;53.80
64833;HTU21D;51290;45.060;38.948;2023-06-19T08:44:51;28.41;53.62
64833;HTU21D;51290;45.060;38.948;2023-06-19T08:47:17;28.34;53.74
64833;HTU21D;51290;45.060;38.948;2023-06-19T08:49:43;28.33;53.60
64833;HTU21D;51290;45.060;38.948;2023-06-19T08:52:10;28.33;53.61
64833;HTU21D;51290;45.060;38.948;2023-06-19T08:54:36;28.38;53.40
64833;HTU21D;51290;45.060;38.948;2023-06-19T08:57:10;28.37;53.19
64833;HTU21D;51290;45.060;38.948;2023-06-19T08:59:36;28.35;52.91
64833;HTU21D;51290;45.060;38.948;2023-06-19T09:02:03;28.37;52.93
64833;HTU21D;51290;45.060;38.948;2023-06-19T09:04:30;28.43;52.92
64833;HTU21D;51290;45.060;38.948;2023-06-19T09:06:59;28.48;52.76
64833;HTU21D;51290;45.060;38.948;2023-06-19T09:09:26;28.52;52.09
64833;HTU21D;51290;45.060;38.948;2023-06-19T09:12:19;28.54;52.20
64833;HTU21D;51290;45.060;38.948;2023-06-19T09:14:54;28.63;52.11
64833;HTU21D;51290;45.060;38.948;2023-06-19T09:17:21;28.73;52.07
64833;HTU21D;51290;45.060;38.948;2023-06-19T09:19:50;28.82;51.59
64833;HTU21D;51290;45.060;38.948;2023-06-19T09:22:18;28.88;51.30
64833;HTU21D;51290;45.060;38.948;2023-06-19T09:24:47;28.87;50.86
64833;HTU21D;51290;45.060;38.948;2023-06-19T09:27:15;28.84;50.76
64833;HTU21D;51290;45.060;38.948;2023-06-19T09:29:48;28.86;50.95
64833;HTU21D;51290;45.060;38.948;2023-06-19T09:34:47;29.04;50.02
64833;HTU21D;51290;45.060;38.948;2023-06-19T09:37:14;29.15;49.89
64833;HTU21D;51290;45.060;38.948;2023-06-19T09:39:40;29.27;49.48
64833;HTU21D;51290;45.060;38.948;2023-06-19T09:42:09;29.34;48.52
64833;HTU21D;51290;45.060;38.948;2023-06-19T09:44:46;29.48;48.61
64833;HTU21D;51290;45.060;38.948;2023-06-19T09:47:22;29.74;48.53
64833;HTU21D;51290;45.060;38.948;2023-06-19T09:49:54;30.02;48.12
64833;HTU21D;51290;45.060;38.948;2023-06-19T09:52:21;30.22;47.85
64833;HTU21D;51290;45.060;38.948;2023-06-19T09:54:53;30.34;47.59
64833;HTU21D;51290;45.060;38.948;2023-06-19T09:57:20;30.42;47.81
64833;HTU21D;51290;45.060;38.948;2023-06-19T09:59:48;30.48;47.54
64833;HTU21D;51290;45.060;38.948;2023-06-19T10:02:17;30.42;45.92
64833;HTU21D;51290;45.060;38.948;2023-06-19T10:04:45;30.32;45.99
64833;HTU21D;51290;45.060;38.948;2023-06-19T10:07:31;30.25;46.31
64833;HTU21D;51290;45.060;38.948;2023-06-19T10:10:02;30.23;45.91
64833;HTU21D;51290;45.060;38.948;2023-06-19T10:12:38;30.23;45.66
64833;HTU21D;51290;45.060;38.948;2023-06-19T10:15:20;30.26;45.84
64833;HTU21D;51290;45.060;38.948;2023-06-19T10:17:49;30.36;45.46
64833;HTU21D;51290;45.060;38.948;2023-06-19T10:20:24;30.50;45.15
64833;HTU21D;51290;45.060;38.948;2023-06-19T10:25:24;30.67;45.27
64833;HTU21D;51290;45.060;38.948;2023-06-19T10:27:50;30.72;45.61
64833;HTU21D;51290;45.060;38.948;2023-06-19T10:30:28;30.82;45.77
64833;HTU21D;51290;45.060;38.948;2023-06-19T10:33:01;30.91;45.90
64833;HTU21D;51290;45.060;38.948;2023-06-19T10:35:38;30.91;45.38
64833;HTU21D;51290;45.060;38.948;2023-06-19T10:38:06;30.70;45.50
64833;HTU21D;51290;45.060;38.948;2023-06-19T10:40:32;30.46;45.73
64833;HTU21D;51290;45.060;38.948;2023-06-19T10:42:57;30.20;46.06
64833;HTU21D;51290;45.060;38.948;2023-06-19T10:45:24;30.04;46.28
64833;HTU21D;51290;45.060;38.948;2023-06-19T10:47:55;29.91;46.16
64833;HTU21D;51290;45.060;38.948;2023-06-19T10:50:22;29.77;46.14
64833;HTU21D;51290;45.060;38.948;2023-06-19T10:52:52;29.70;46.51
64833;HTU21D;51290;45.060;38.948;2023-06-19T10:55:19;29.71;46.64
64833;HTU21D;51290;45.060;38.948;2023-06-19T10:57:47;29.75;46.74
64833;HTU21D;51290;45.060;38.948;2023-06-19T11:00:27;29.85;46.40
64833;HTU21D;51290;45.060;38.948;2023-06-19T11:02:55;29.92;46.37
64833;HTU21D;51290;45.060;38.948;2023-06-19T11:05:22;29.97;46.33
64833;HTU21D;51290;45.060;38.948;2023-06-19T11:07:59;30.00;46.16
64833;HTU21D;51290;45.060;38.948;2023-06-19T11:10:26;30.04;46.29
64833;HTU21D;51290;45.060;38.948;2023-06-19T11:12:57;30.02;46.23
64833;HTU21D;51290;45.060;38.948;2023-06-19T11:15:34;30.00;46.53
64833;HTU21D;51290;45.060;38.948;2023-06-19T11:18:01;30.00;46.60
64833;HTU21D;51290;45.060;38.948;2023-06-19T11:20:28;30.06;46.68
64833;HTU21D;51290;45.060;38.948;2023-06-19T11:22:56;30.02;46.44
64833;HTU21D;51290;45.060;38.948;2023-06-19T11:25:23;29.97;46.51
64833;HTU21D;51290;45.060;38.948;2023-06-19T11:27:49;29.87;46.24
64833;HTU21D;51290;45.060;38.948;2023-06-19T11:30:18;29.73;46.54
64833;HTU21D;51290;45.060;38.948;2023-06-19T11:32:46;29.66;46.80
64833;HTU21D;51290;45.060;38.948;2023-06-19T11:35:16;29.63;46.93
64833;HTU21D;51290;45.060;38.948;2023-06-19T11:37:43;29.57;45.99
64833;HTU21D;51290;45.060;38.948;2023-06-19T11:40:10;29.49;46.29
64833;HTU21D;51290;45.060;38.948;2023-06-19T11:42:51;29.44;45.81
64833;HTU21D;51290;45.060;38.948;2023-06-19T11:45:17;29.43;46.02
64833;HTU21D;51290;45.060;38.948;2023-06-19T11:47:44;29.43;46.09
64833;HTU21D;51290;45.060;38.948;2023-06-19T11:50:13;29.51;46.11
64833;HTU21D;51290;45.060;38.948;2023-06-19T11:52:40;29.57;45.96
64833;HTU21D;51290;45.060;38.948;2023-06-19T11:55:06;29.53;45.77
64833;HTU21D;51290;45.060;38.948;2023-06-19T11:57:32;29.49;45.96
64833;HTU21D;51290;45.060;38.948;2023-06-19T12:00:02;29.49;46.12
64833;HTU21D;51290;45.060;38.948;2023-06-19T12:02:38;29.53;46.38
64833;HTU21D;51290;45.060;38.948;2023-06-19T12:05:05;29.61;46.59
64833;HTU21D;51290;45.060;38.948;2023-06-19T12:07:33;29.65;46.49
64833;HTU21D;51290;45.060;38.948;2023-06-19T12:09:59;29.66;46.12
64833;HTU21D;51290;45.060;38.948;2023-06-19T12:12:25;29.62;46.09
64833;HTU21D;51290;45.060;38.948;2023-06-19T12:14:51;29.60;45.94
64833;HTU21D;51290;45.060;38.948;2023-06-19T12:17:17;29.57;45.98
64833;HTU21D;51290;45.060;38.948;2023-06-19T12:19:43;29.47;45.76
64833;HTU21D;51290;45.060;38.948;2023-06-19T12:22:09;29.39;46.10
64833;HTU21D;51290;45.060;38.948;2023-06-19T12:24:36;29.36;46.07
64833;HTU21D;51290;45.060;38.948;2023-06-19T12:27:03;29.31;46.27
64833;HTU21D;51290;45.060;38.948;2023-06-19T12:29:29;29.31;46.38
64833;HTU21D;51290;45.060;38.948;2023-06-19T12:32:02;29.29;46.19
64833;HTU21D;51290;45.060;38.948;2023-06-19T12:34:31;29.24;46.45
64833;HTU21D;51290;45.060;38.948;2023-06-19T12:36:57;29.15;46.39
64833;HTU21D;51290;45.060;38.948;2023-06-19T12:39:23;29.05;46.72
64833;HTU21D;51290;45.060;38.948;2023-06-19T12:41:49;29.00;46.97
64833;HTU21D;51290;45.060;38.948;2023-06-19T12:44:15;28.93;46.96
64833;HTU21D;51290;45.060;38.948;2023-06-19T12:46:44;28.87;47.17
64833;HTU21D;51290;45.060;38.948;2023-06-19T12:49:10;28.82;47.33
64833;HTU21D;51290;45.060;38.948;2023-06-19T12:51:36;28.76;47.44
64833;HTU21D;51290;45.060;38.948;2023-06-19T12:54:02;28.63;47.70
64833;HTU21D;51290;45.060;38.948;2023-06-19T12:56:31;28.55;47.99
64833;HTU21D;51290;45.060;38.948;2023-06-19T12:58:57;28.45;48.23
64833;HTU21D;51290;45.060;38.948;2023-06-19T13:01:33;28.30;48.60
64833;HTU21D;51290;45.060;38.948;2023-06-19T13:03:59;28.18;48.95
64833;HTU21D;51290;45.060;38.948;2023-06-19T13:06:25;28.09;49.31
64833;HTU21D;51290;45.060;38.948;2023-06-19T13:08:51;27.96;49.60
64833;HTU21D;51290;45.060;38.948;2023-06-19T13:11:17;27.86;49.93
64833;HTU21D;51290;45.060;38.948;2023-06-19T13:13:43;27.78;50.24
64833;HTU21D;51290;45.060;38.948;2023-06-19T13:16:09;27.69;50.47
64833;HTU21D;51290;45.060;38.948;2023-06-19T13:18:36;27.63;50.69
64833;HTU21D;51290;45.060;38.948;2023-06-19T13:21:02;27.54;51.00
64833;HTU21D;51290;45.060;38.948;2023-06-19T13:23:28;27.49;51.21
64833;HTU21D;51290;45.060;38.948;2023-06-19T13:25:57;27.42;51.37
64833;HTU21D;51290;45.060;38.948;2023-06-19T13:28:23;27.39;51.55
64833;HTU21D;51290;45.060;38.948;2023-06-19T13:30:49;27.34;51.75
64833;HTU21D;51290;45.060;38.948;2023-06-19T13:33:16;27.28;52.05
64833;HTU21D;51290;45.060;38.948;2023-06-19T13:35:42;27.24;52.22
64833;HTU21D;51290;45.060;38.948;2023-06-19T13:38:11;27.20;52.30
64833;HTU21D;51290;45.060;38.948;2023-06-19T13:40:37;27.16;52.24
64833;HTU21D;51290;45.060;38.948;2023-06-19T13:43:03;27.05;51.77
64833;HTU21D;51290;45.060;38.948;2023-06-19T13:45:32;26.83;51.71
64833;HTU21D;51290;45.060;38.948;2023-06-19T13:47:58;26.66;51.70
64833;HTU21D;51290;45.060;38.948;2023-06-19T13:50:24;26.47;52.09
64833;HTU21D;51290;45.060;38.948;2023-06-19T13:52:50;26.28;52.76
64833;HTU21D;51290;45.060;38.948;2023-06-19T13:55:16;26.04;53.39
64833;HTU21D;51290;45.060;38.948;2023-06-19T13:57:44;25.73;53.96
64833;HTU21D;51290;45.060;38.948;2023-06-19T14:00:12;25.43;54.59
64833;HTU21D;51290;45.060;38.948;2023-06-19T14:02:38;25.14;55.22
64833;HTU21D;51290;45.060;38.948;2023-06-19T14:05:07;24.88;55.79
64833;HTU21D;51290;45.060;38.948;2023-06-19T14:07:34;24.62;56.48
64833;HTU21D;51290;45.060;38.948;2023-06-19T14:10:02;24.39;57.35
64833;HTU21D;51290;45.060;38.948;2023-06-19T14:12:29;24.17;57.87
64833;HTU21D;51290;45.060;38.948;2023-06-19T14:14:56;23.87;58.24
64833;HTU21D;51290;45.060;38.948;2023-06-19T14:17:23;23.52;59.06
64833;HTU21D;51290;45.060;38.948;2023-06-19T14:19:49;23.16;59.69
64833;HTU21D;51290;45.060;38.948;2023-06-19T14:22:17;22.85;60.44
64833;HTU21D;51290;45.060;38.948;2023-06-19T14:24:44;22.57;61.30
64833;HTU21D;51290;45.060;38.948;2023-06-19T14:27:11;22.36;62.41
64833;HTU21D;51290;45.060;38.948;2023-06-19T14:29:41;22.26;63.48
64833;HTU21D;51290;45.060;38.948;2023-06-19T14:32:07;22.17;63.76
64833;HTU21D;51290;45.060;38.948;2023-06-19T14:34:33;22.08;64.13
64833;HTU21D;51290;45.060;38.948;2023-06-19T14:37:00;22.01;64.89
64833;HTU21D;51290;45.060;38.948;2023-06-19T14:39:26;21.91;65.22
64833;HTU21D;51290;45.060;38.948;2023-06-19T14:41:52;21.81;65.37
64833;HTU21D;51290;45.060;38.948;2023-06-19T14:44:18;21.70;65.53
64833;HTU21D;51290;45.060;38.948;2023-06-19T14:46:44;21.64;65.89
64833;HTU21D;51290;45.060;38.948;2023-06-19T14:49:12;21.58;66.22
64833;HTU21D;51290;45.060;38.948;2023-06-19T14:51:39;21.51;66.36
64833;HTU21D;51290;45.060;38.948;2023-06-19T14:54:06;21.50;66.70
64833;HTU21D;51290;45.060;38.948;2023-06-19T14:56:32;21.50;67.06
64833;HTU21D;51290;45.060;38.948;2023-06-19T14:58:59;21.47;67.42
64833;HTU21D;51290;45.060;38.948;2023-06-19T15:01:26;21.50;67.84
64833;HTU21D;51290;45.060;38.948;2023-06-19T15:03:53;21.48;67.75
64833;HTU21D;51290;45.060;38.948;2023-06-19T15:06:20;21.46;67.72
64833;HTU21D;51290;45.060;38.948;2023-06-19T15:08:47;21.42;67.89
64833;HTU21D;51290;45.060;38.948;2023-06-19T15:11:13;21.37;68.18
64833;HTU21D;51290;45.060;38.948;2023-06-19T15:13:39;21.37;68.36